Time;durP1;ratioP1;P1;durP2;ratioP2;P2;SDS_P1;SDS_P2;PMS_P1;PMS_P2;Temp;Humidity;BMP_temperature;BMP_pressure;BME280_temperature;BME280_humidity;BME280_pressure;Samples;Min_cycle;Max_cycle;Signal;HPM_P1;HPM_P2
2022/07/26 00:00:02;;;;;;;2.00;1.20;;;27.80;76.70;;;;;;5085043;28;20439;-82
2022/07/26 00:02:30;;;;;;;1.50;1.10;;;27.70;78.00;;;;;;5083868;28;20454;-82
2022/07/26 00:04:58;;;;;;;2.60;1.30;;;27.60;80.10;;;;;;5085153;28;20438;-81
2022/07/26 00:07:26;;;;;;;2.03;1.17;;;27.60;78.20;;;;;;5084917;28;20470;-81
2022/07/26 00:10:05;;;;;;;1.20;1.10;;;27.60;79.70;;;;;;5085176;28;20457;-82
2022/07/26 00:12:34;;;;;;;1.63;1.00;;;27.60;76.50;;;;;;5084324;28;20457;-82
2022/07/26 00:15:03;;;;;;;3.23;2.20;;;27.60;79.50;;;;;;5087698;28;20887;-82
2022/07/26 00:17:31;;;;;;;1.27;1.03;;;27.60;77.60;;;;;;5086410;28;20481;-82
2022/07/26 00:19:59;;;;;;;1.20;1.10;;;27.60;82.00;;;;;;5091499;28;20460;-84
2022/07/26 00:22:38;;;;;;;1.00;0.90;;;27.60;80.50;;;;;;5084196;28;20450;-84
2022/07/26 00:25:09;;;;;;;2.30;1.50;;;27.60;78.90;;;;;;5091673;28;20454;-82
2022/07/26 00:27:37;;;;;;;1.00;0.83;;;27.50;78.50;;;;;;5089485;28;20508;-82
2022/07/26 00:30:07;;;;;;;1.33;0.93;;;27.60;84.10;;;;;;5094219;28;20534;-83
2022/07/26 00:32:36;;;;;;;1.00;0.90;;;27.60;80.10;;;;;;5090230;28;20449;-83
2022/07/26 00:35:05;;;;;;;1.30;1.20;;;27.50;80.30;;;;;;5089338;28;20446;-81
2022/07/26 00:37:33;;;;;;;2.63;1.03;;;27.50;80.30;;;;;;5090013;28;20476;-83
2022/07/26 00:40:02;;;;;;;0.83;0.80;;;27.50;83.50;;;;;;5079614;28;20537;-80
2022/07/26 00:42:31;;;;;;;2.00;0.90;;;27.50;84.40;;;;;;5091027;28;20488;-81
2022/07/26 00:45:00;;;;;;;1.03;0.87;;;27.60;83.50;;;;;;5087591;28;20861;-82
2022/07/26 00:47:28;;;;;;;2.83;0.90;;;27.50;83.40;;;;;;5081250;28;21079;-81
2022/07/26 00:49:56;;;;;;;0.90;0.80;;;27.50;83.60;;;;;;5087882;28;20732;-81
2022/07/26 00:52:25;;;;;;;1.10;0.90;;;27.50;83.90;;;;;;5090297;28;21021;-81
2022/07/26 00:54:55;;;;;;;1.03;0.83;;;27.50;82.60;;;;;;5089711;28;21018;-81
2022/07/26 00:57:23;;;;;;;1.73;1.57;;;27.50;82.50;;;;;;5091376;28;20473;-81
2022/07/26 00:59:53;;;;;;;2.77;0.80;;;27.40;82.00;;;;;;5087079;28;20576;-81
2022/07/26 01:02:21;;;;;;;1.90;0.80;;;27.40;84.00;;;;;;5080352;28;20443;-80
2022/07/26 01:04:49;;;;;;;0.80;0.80;;;27.40;86.30;;;;;;5084244;28;20457;-82
2022/07/26 01:07:18;;;;;;;1.57;0.80;;;27.40;96.70;;;;;;5086505;28;20551;-81
2022/07/26 01:09:46;;;;;;;1.57;0.70;;;27.30;84.10;;;;;;5081429;28;20945;-81
2022/07/26 01:12:14;;;;;;;1.13;1.00;;;27.40;86.20;;;;;;5086757;28;20450;-82
2022/07/26 01:14:43;;;;;;;1.37;0.73;;;27.40;86.50;;;;;;5079901;28;20458;-81
2022/07/26 01:17:13;;;;;;;1.10;0.70;;;27.40;86.60;;;;;;5085083;28;20824;-80
2022/07/26 01:19:42;;;;;;;1.47;1.17;;;27.30;84.70;;;;;;5085272;28;20454;-80
2022/07/26 01:22:11;;;;;;;1.50;0.70;;;27.30;86.70;;;;;;5085676;28;20449;-82
2022/07/26 01:24:42;;;;;;;1.97;0.97;;;27.30;86.30;;;;;;5087079;28;20445;-82
2022/07/26 01:27:10;;;;;;;0.87;0.70;;;27.20;87.70;;;;;;5084441;28;20469;-82
2022/07/26 01:29:38;;;;;;;1.00;0.87;;;27.30;90.60;;;;;;5088948;28;20454;-83
2022/07/26 01:32:08;;;;;;;1.00;0.90;;;27.20;90.90;;;;;;5090571;28;20473;-82
2022/07/26 01:34:38;;;;;;;0.70;0.70;;;27.20;88.70;;;;;;5088234;28;20457;-83
2022/07/26 01:37:06;;;;;;;0.80;0.80;;;27.20;90.50;;;;;;5081717;28;20474;-82
2022/07/26 01:39:36;;;;;;;1.17;0.70;;;27.20;90.60;;;;;;5087594;28;20468;-80
2022/07/26 01:42:04;;;;;;;0.80;0.70;;;27.20;92.00;;;;;;5081186;28;20862;-83
2022/07/26 01:44:32;;;;;;;1.00;0.90;;;27.10;92.60;;;;;;5082972;28;20458;-83
2022/07/26 01:47:01;;;;;;;2.10;0.90;;;27.10;91.90;;;;;;5079518;28;20500;-83
2022/07/26 01:49:29;;;;;;;0.80;0.80;;;27.10;93.10;;;;;;5086251;28;20442;-83
2022/07/26 01:51:57;;;;;;;0.90;0.90;;;27.10;91.70;;;;;;5087234;28;20466;-83
2022/07/26 01:54:25;;;;;;;1.20;0.87;;;27.00;91.80;;;;;;5090969;28;20453;-83
2022/07/26 01:56:55;;;;;;;1.07;0.97;;;27.30;91.00;;;;;;5088471;28;20466;-82
2022/07/26 01:59:23;;;;;;;0.70;0.70;;;27.00;91.50;;;;;;5080921;28;20960;-82
2022/07/26 02:01:52;;;;;;;2.00;0.70;;;26.90;90.50;;;;;;5085822;28;20454;-82
2022/07/26 02:07:06;;;;;;;0.90;0.90;;;26.90;90.80;;;;;;5085841;28;20961;-82
2022/07/26 02:09:40;;;;;;;0.80;0.80;;;26.90;90.90;;;;;;5084030;28;20481;-82
2022/07/26 02:12:10;;;;;;;1.10;0.70;;;26.90;90.60;;;;;;5085516;28;20465;-82
2022/07/26 02:14:38;;;;;;;2.00;0.90;;;26.80;91.50;;;;;;5084095;28;20671;-82
2022/07/26 02:17:06;;;;;;;1.23;0.80;;;26.80;91.60;;;;;;5084789;28;20457;-82
2022/07/26 02:19:35;;;;;;;1.33;0.70;;;26.90;92.80;;;;;;5088797;28;20430;-83
2022/07/26 02:22:03;;;;;;;1.33;1.00;;;26.80;90.60;;;;;;5088256;28;20449;-84
2022/07/26 02:24:31;;;;;;;1.00;0.83;;;26.80;90.90;;;;;;5088774;28;20927;-82
2022/07/26 02:27:01;;;;;;;1.20;0.80;;;26.80;91.30;;;;;;5085603;28;20494;-81
2022/07/26 02:29:31;;;;;;;2.20;0.90;;;26.80;91.30;;;;;;5082232;28;20473;-82
2022/07/26 02:32:00;;;;;;;1.80;0.70;;;26.70;91.80;;;;;;5083239;28;20470;-81
2022/07/26 02:34:28;;;;;;;1.30;0.83;;;26.80;94.20;;;;;;5078927;28;20462;-82
2022/07/26 02:37:01;;;;;;;1.30;0.90;;;26.80;93.30;;;;;;5082038;28;20482;-81
2022/07/26 02:39:30;;;;;;;1.37;0.90;;;26.70;91.80;;;;;;5087852;28;20518;-81
2022/07/26 02:42:00;;;;;;;1.00;0.90;;;26.70;91.50;;;;;;5085000;28;20547;-83
2022/07/26 02:44:30;;;;;;;1.30;0.90;;;26.60;90.70;;;;;;5087733;28;20515;-82
2022/07/26 02:46:59;;;;;;;0.80;0.80;;;26.60;92.20;;;;;;5089936;28;20477;-82
2022/07/26 02:49:27;;;;;;;0.80;0.80;;;26.60;93.00;;;;;;5088796;28;20458;-82
2022/07/26 02:51:55;;;;;;;0.80;0.80;;;26.60;93.00;;;;;;5085071;28;21050;-83
2022/07/26 02:54:23;;;;;;;1.00;0.90;;;26.60;93.90;;;;;;5088922;28;20445;-83
2022/07/26 02:56:51;;;;;;;0.87;0.87;;;26.70;93.90;;;;;;5081691;28;20470;-82
2022/07/26 02:59:19;;;;;;;1.17;0.70;;;26.70;94.00;;;;;;5086143;28;20438;-81
2022/07/26 03:01:49;;;;;;;0.90;0.70;;;26.70;93.40;;;;;;5082310;28;20490;-82
2022/07/26 03:04:17;;;;;;;2.67;1.23;;;26.70;96.20;;;;;;5083732;28;20443;-81
2022/07/26 03:06:46;;;;;;;1.70;0.93;;;26.60;94.10;;;;;;5084739;28;20461;-81
2022/07/26 03:09:14;;;;;;;1.10;1.00;;;26.60;94.80;;;;;;5088182;28;21048;-81
2022/07/26 03:11:42;;;;;;;0.80;0.80;;;26.60;93.90;;;;;;5083610;28;20954;-81
2022/07/26 03:14:10;;;;;;;0.90;0.90;;;26.60;94.80;;;;;;5084497;28;20457;-83
2022/07/26 03:16:39;;;;;;;0.97;0.87;;;26.60;94.60;;;;;;5084780;28;20480;-82
2022/07/26 03:19:08;;;;;;;0.83;0.83;;;26.60;94.60;;;;;;5083803;28;20453;-82
2022/07/26 03:21:37;;;;;;;1.90;1.00;;;26.50;94.50;;;;;;5080340;28;20496;-83
2022/07/26 03:24:05;;;;;;;2.80;1.00;;;26.60;95.70;;;;;;5096473;28;20508;-80
2022/07/26 03:26:34;;;;;;;1.27;0.80;;;26.50;93.50;;;;;;5090889;28;20477;-82
2022/07/26 03:29:02;;;;;;;1.07;0.80;;;26.50;95.40;;;;;;5089890;28;20535;-82
2022/07/26 03:31:30;;;;;;;0.97;0.97;;;26.50;95.50;;;;;;5078763;28;20462;-84
2022/07/26 03:33:59;;;;;;;0.90;0.90;;;26.40;95.90;;;;;;5087675;28;20466;-83
2022/07/26 03:36:31;;;;;;;0.80;0.80;;;26.50;95.50;;;;;;5085105;28;20885;-83
2022/07/26 03:39:00;;;;;;;1.30;0.83;;;26.40;96.10;;;;;;5086528;28;20453;-84
2022/07/26 03:41:30;;;;;;;1.00;0.90;;;26.40;95.10;;;;;;5088448;28;20442;-83
2022/07/26 03:43:58;;;;;;;1.33;0.90;;;26.40;95.20;;;;;;5088976;28;20450;-82
2022/07/26 03:46:26;;;;;;;1.13;1.00;;;26.40;95.30;;;;;;5077004;28;20881;-82
2022/07/26 03:48:54;;;;;;;1.00;1.00;;;26.40;96.60;;;;;;5082267;28;20846;-83
2022/07/26 03:51:23;;;;;;;1.23;0.80;;;26.40;97.20;;;;;;5091071;28;20457;-83
2022/07/26 03:53:53;;;;;;;1.10;1.00;;;26.30;94.80;;;;;;5091310;28;20503;-86
2022/07/26 03:56:30;;;;;;;1.10;1.00;;;26.30;95.70;;;;;;5085526;28;20486;-82
2022/07/26 03:58:59;;;;;;;1.40;1.20;;;26.20;94.40;;;;;;5088447;28;20446;-80
2022/07/26 04:01:28;;;;;;;1.80;1.10;;;26.20;94.60;;;;;;5088222;28;20449;-82
2022/07/26 04:03:56;;;;;;;1.03;0.93;;;26.20;94.50;;;;;;5085687;28;20453;-81
2022/07/26 04:06:25;;;;;;;2.60;1.20;;;26.20;95.20;;;;;;5084778;28;20493;-82
2022/07/26 04:08:54;;;;;;;1.43;1.17;;;26.20;95.30;;;;;;5087471;28;20470;-81
2022/07/26 04:11:23;;;;;;;1.73;1.00;;;26.20;94.90;;;;;;5086939;28;20454;-82
2022/07/26 04:13:56;;;;;;;1.17;1.00;;;26.20;96.50;;;;;;5080138;28;20474;-82
2022/07/26 04:16:24;;;;;;;0.90;0.90;;;26.20;95.20;;;;;;5081725;28;20466;-82
2022/07/26 04:18:53;;;;;;;3.13;0.93;;;26.10;95.00;;;;;;5081724;28;20455;-83
2022/07/26 04:21:21;;;;;;;1.10;1.10;;;26.10;95.60;;;;;;5083580;28;20536;-82
2022/07/26 04:23:50;;;;;;;1.33;0.80;;;26.10;94.80;;;;;;5084939;28;20461;-82
2022/07/26 04:26:21;;;;;;;0.93;0.93;;;26.10;96.70;;;;;;5082745;28;20454;-82
2022/07/26 04:28:49;;;;;;;0.97;0.97;;;26.00;94.70;;;;;;5086109;28;20470;-82
2022/07/26 04:31:18;;;;;;;5.30;1.00;;;26.00;94.80;;;;;;5087390;28;20454;-81
2022/07/26 04:33:46;;;;;;;0.93;0.83;;;25.90;95.70;;;;;;5082277;28;20469;-74
2022/07/26 04:36:14;;;;;;;1.00;1.00;;;25.80;95.10;;;;;;5076858;28;20464;-74
2022/07/26 04:38:42;;;;;;;1.20;1.10;;;25.70;95.20;;;;;;5076096;28;20452;-74
2022/07/26 04:41:11;;;;;;;1.33;1.00;;;25.60;95.60;;;;;;5081997;28;20533;-74
2022/07/26 04:43:40;;;;;;;1.13;1.03;;;25.60;95.40;;;;;;5076815;28;20450;-74
2022/07/26 04:46:09;;;;;;;1.97;0.97;;;25.60;95.60;;;;;;5081082;28;20456;-74
2022/07/26 04:48:38;;;;;;;1.20;0.90;;;25.50;95.30;;;;;;5075007;28;20488;-73
2022/07/26 04:51:06;;;;;;;1.00;1.00;;;25.50;95.60;;;;;;5079558;28;20450;-73
2022/07/26 04:53:34;;;;;;;1.23;1.10;;;25.40;96.60;;;;;;5079042;28;20827;-74
2022/07/26 04:56:04;;;;;;;1.30;1.03;;;25.40;96.50;;;;;;5083461;28;20820;-73
2022/07/26 04:58:32;;;;;;;1.57;1.10;;;25.40;96.90;;;;;;5080030;28;22507;-75
2022/07/26 05:01:02;;;;;;;1.43;1.23;;;25.50;97.70;;;;;;5082716;28;20446;-70
2022/07/26 05:03:37;;;;;;;1.50;1.10;;;25.50;98.50;;;;;;5079379;28;20453;-74
2022/07/26 05:06:05;;;;;;;1.30;1.20;;;25.40;97.70;;;;;;5078006;28;20469;-73
2022/07/26 05:08:34;;;;;;;1.33;1.10;;;25.40;98.80;;;;;;5074586;28;20481;-73
2022/07/26 05:11:02;;;;;;;1.67;1.00;;;25.50;99.90;;;;;;5080045;28;20476;-72
2022/07/26 05:13:31;;;;;;;1.20;1.00;;;25.30;98.30;;;;;;5082023;28;21024;-73
2022/07/26 05:15:59;;;;;;;1.53;1.10;;;25.20;99.10;;;;;;5078662;28;20463;-74
2022/07/26 05:18:30;;;;;;;1.63;1.10;;;25.20;98.40;;;;;;5081493;28;20822;-73
2022/07/26 05:21:16;;;;;;;2.20;1.30;;;25.00;97.30;;;;;;5081223;28;20523;-82
2022/07/26 05:23:45;;;;;;;1.93;1.00;;;24.80;98.20;;;;;;5088217;28;20533;-82
2022/07/26 05:26:13;;;;;;;1.67;1.30;;;25.00;99.90;;;;;;5080253;28;20953;-82
2022/07/26 05:28:41;;;;;;;1.17;1.07;;;25.10;99.90;;;;;;5091143;28;20480;-84
2022/07/26 05:31:10;;;;;;;1.60;1.40;;;25.20;99.90;;;;;;5087499;28;20450;-84
2022/07/26 05:33:39;;;;;;;1.60;1.30;;;25.30;99.90;;;;;;5088700;28;20511;-83
2022/07/26 05:36:08;;;;;;;1.20;1.10;;;25.30;99.90;;;;;;5091336;28;20452;-81
2022/07/26 05:38:36;;;;;;;1.30;1.20;;;25.50;99.90;;;;;;5084077;28;20946;-86
2022/07/26 05:41:05;;;;;;;1.67;1.30;;;25.50;99.90;;;;;;5088399;28;20815;-84
2022/07/26 05:43:33;;;;;;;1.77;1.30;;;25.60;99.90;;;;;;5091145;28;20517;-82
2022/07/26 05:46:08;;;;;;;1.10;1.07;;;25.60;99.90;;;;;;5085506;28;20967;-81
2022/07/26 05:48:39;;;;;;;1.40;1.30;;;25.70;99.90;;;;;;5088636;28;20479;-83
2022/07/26 05:51:08;;;;;;;1.40;1.30;;;25.60;99.90;;;;;;5086503;28;20458;-83
2022/07/26 05:53:36;;;;;;;2.60;1.43;;;25.70;99.90;;;;;;5089300;28;20472;-80
2022/07/26 05:56:05;;;;;;;1.97;1.53;;;25.60;99.90;;;;;;5075869;28;20454;-82
2022/07/26 05:58:33;;;;;;;1.53;1.30;;;25.70;99.90;;;;;;5090475;28;20491;-83
2022/07/26 06:01:01;;;;;;;1.60;1.40;;;25.70;99.90;;;;;;5091818;28;20503;-83
2022/07/26 06:03:31;;;;;;;3.67;2.43;;;25.70;99.90;;;;;;5085372;28;20454;-82
2022/07/26 06:06:00;;;;;;;3.93;1.60;;;25.80;99.90;;;;;;5084347;28;20453;-83
2022/07/26 06:08:28;;;;;;;3.17;1.37;;;25.70;99.90;;;;;;5091419;28;20457;-82
2022/07/26 06:10:57;;;;;;;1.73;1.40;;;25.80;99.90;;;;;;5091883;28;20837;-83
2022/07/26 06:13:26;;;;;;;2.90;1.63;;;25.80;99.90;;;;;;5093011;28;20460;-84
2022/07/26 06:15:54;;;;;;;1.30;1.20;;;25.80;99.90;;;;;;5095589;28;20441;-85
2022/07/26 06:18:22;;;;;;;3.63;1.40;;;25.70;99.90;;;;;;5094290;28;20985;-82
2022/07/26 06:20:50;;;;;;;1.40;1.30;;;25.80;99.90;;;;;;5095836;28;20465;-83
2022/07/26 06:23:20;;;;;;;1.30;1.20;;;25.80;99.90;;;;;;5093952;28;20469;-82
2022/07/26 06:26:03;;;;;;;1.97;1.20;;;25.90;99.90;;;;;;5090104;28;20506;-83
2022/07/26 06:28:32;;;;;;;2.20;1.40;;;25.80;98.80;;;;;;5087338;28;20447;-81
2022/07/26 06:31:01;;;;;;;2.30;1.20;;;25.80;98.00;;;;;;5085473;28;20446;-85
2022/07/26 06:33:29;;;;;;;1.20;1.10;;;25.80;97.60;;;;;;5086923;28;20471;-82
2022/07/26 06:35:57;;;;;;;4.10;1.13;;;25.80;96.40;;;;;;5081081;28;20450;-82
2022/07/26 06:38:27;;;;;;;1.00;1.00;;;25.90;97.00;;;;;;5094188;28;20471;-81
2022/07/26 06:40:55;;;;;;;1.07;0.97;;;25.90;96.10;;;;;;5092559;28;22822;-85
2022/07/26 06:43:39;;;;;;;1.20;1.10;;;25.90;95.50;;;;;;5059235;28;20458;-82
2022/07/26 06:46:07;;;;;;;1.17;1.00;;;26.00;94.40;;;;;;5091368;28;20454;-79
2022/07/26 06:48:35;;;;;;;1.53;0.80;;;26.10;94.80;;;;;;5075106;28;20487;-85
2022/07/26 06:51:08;;;;;;;4.10;1.20;;;26.10;99.90;;;;;;5091278;28;20468;-81
2022/07/26 06:53:38;;;;;;;1.07;1.00;;;26.10;92.40;;;;;;5093558;28;20455;-82
2022/07/26 06:56:07;;;;;;;1.17;0.90;;;26.20;94.10;;;;;;5091408;28;20450;-79
2022/07/26 06:58:35;;;;;;;2.30;0.73;;;26.40;93.50;;;;;;5093313;28;20460;-83
2022/07/26 07:01:04;;;;;;;0.97;0.87;;;26.50;93.90;;;;;;5093610;28;20474;-82
2022/07/26 07:03:32;;;;;;;1.63;0.90;;;26.60;93.40;;;;;;5094870;28;20841;-84
2022/07/26 07:06:00;;;;;;;2.73;1.13;;;26.70;93.90;;;;;;5084265;28;20449;-83
2022/07/26 07:08:31;;;;;;;1.30;0.80;;;26.80;93.30;;;;;;5080293;28;20550;-82
2022/07/26 07:11:00;;;;;;;1.10;0.80;;;26.90;91.80;;;;;;5089835;28;20470;-83
2022/07/26 07:13:30;;;;;;;2.97;1.73;;;26.90;94.40;;;;;;5094718;28;20531;-83
2022/07/26 07:15:58;;;;;;;1.13;0.80;;;26.90;92.70;;;;;;5093546;28;20450;-86
2022/07/26 07:18:27;;;;;;;0.80;0.70;;;26.90;92.70;;;;;;5086535;28;20508;-83
2022/07/26 07:20:57;;;;;;;3.03;0.83;;;26.90;89.80;;;;;;5083593;28;20453;-83
2022/07/26 07:23:25;;;;;;;1.17;1.07;;;26.90;87.10;;;;;;5100398;28;20996;-83
2022/07/26 07:25:54;;;;;;;0.70;0.70;;;26.90;90.50;;;;;;5077848;28;20458;-83
2022/07/26 07:28:24;;;;;;;1.47;0.80;;;26.90;88.20;;;;;;5083771;28;20473;-82
2022/07/26 07:30:52;;;;;;;0.77;0.73;;;26.90;89.30;;;;;;5081207;28;20482;-82
2022/07/26 07:33:20;;;;;;;0.70;0.70;;;27.00;88.90;;;;;;5086022;28;20458;-81
2022/07/26 07:35:50;;;;;;;0.80;0.80;;;27.00;87.80;;;;;;5082128;28;20496;-82
2022/07/26 07:38:19;;;;;;;0.93;0.83;;;27.00;84.10;;;;;;5084329;28;20864;-80
2022/07/26 07:40:49;;;;;;;1.00;0.90;;;27.00;87.50;;;;;;5082762;28;20465;-82
2022/07/26 07:43:17;;;;;;;1.57;0.80;;;27.10;86.30;;;;;;5084334;28;20450;-82
2022/07/26 07:45:47;;;;;;;1.07;0.80;;;27.00;87.80;;;;;;5084307;28;20545;-81
2022/07/26 07:48:16;;;;;;;1.80;0.90;;;27.10;87.30;;;;;;5084863;28;21058;-82
2022/07/26 07:50:44;;;;;;;1.00;0.90;;;27.00;87.10;;;;;;5082630;28;20469;-82
2022/07/26 07:53:12;;;;;;;1.47;0.90;;;27.10;83.90;;;;;;5087682;28;21014;-82
2022/07/26 07:55:41;;;;;;;1.10;1.00;;;27.00;87.00;;;;;;5085328;28;20550;-82
2022/07/26 07:58:16;;;;;;;1.93;0.80;;;27.00;80.80;;;;;;5085525;28;20477;-82
2022/07/26 08:00:47;;;;;;;0.93;0.70;;;27.00;81.20;;;;;;5081250;28;20900;-81
2022/07/26 08:03:16;;;;;;;0.80;0.80;;;27.00;79.90;;;;;;5081369;28;20469;-82
2022/07/26 08:05:46;;;;;;;1.50;1.00;;;27.00;81.00;;;;;;5083757;28;20477;-82
2022/07/26 08:08:17;;;;;;;1.10;1.00;;;27.00;79.10;;;;;;5082718;28;20487;-82
2022/07/26 08:10:50;;;;;;;0.80;0.80;;;27.10;77.00;;;;;;5084526;28;20495;-83
2022/07/26 08:13:20;;;;;;;3.23;0.87;;;27.00;76.50;;;;;;5082982;28;20462;-81
2022/07/26 08:15:50;;;;;;;2.40;0.97;;;27.10;79.40;;;;;;5079705;28;20957;-82
2022/07/26 08:18:19;;;;;;;1.10;0.77;;;27.10;81.50;;;;;;5080415;28;20481;-81
2022/07/26 08:20:50;;;;;;;1.53;1.03;;;27.20;80.40;;;;;;5085773;28;20803;-81
2022/07/26 08:23:19;;;;;;;1.43;0.90;;;27.20;81.70;;;;;;5083159;28;20457;-81
2022/07/26 08:25:49;;;;;;;2.10;0.90;;;27.20;78.60;;;;;;5082417;28;20496;-82
2022/07/26 08:28:26;;;;;;;1.00;0.80;;;27.20;77.00;;;;;;5086932;28;20461;-81
2022/07/26 08:31:18;;;;;;;1.43;0.70;;;27.30;77.60;;;;;;5080343;28;20467;-81
2022/07/26 08:33:47;;;;;;;1.70;0.93;;;27.30;76.40;;;;;;5082672;28;20460;-82
2022/07/26 08:36:15;;;;;;;1.47;0.70;;;27.30;77.20;;;;;;5076825;28;20446;-83
2022/07/26 08:38:44;;;;;;;0.97;0.80;;;27.30;76.40;;;;;;5080319;28;20457;-82
2022/07/26 08:41:15;;;;;;;1.10;1.00;;;27.30;76.80;;;;;;5081877;28;20965;-82
2022/07/26 08:43:44;;;;;;;1.50;0.90;;;27.20;74.00;;;;;;5082548;28;20454;-82
2022/07/26 08:46:22;;;;;;;1.97;0.73;;;27.20;76.50;;;;;;5079689;28;20487;-82
2022/07/26 08:48:54;;;;;;;1.47;0.90;;;27.30;74.90;;;;;;5086598;28;20449;-82
2022/07/26 08:51:24;;;;;;;1.57;1.00;;;27.30;78.30;;;;;;5086195;28;21028;-82
2022/07/26 08:53:55;;;;;;;0.80;0.80;;;27.30;74.50;;;;;;5092873;28;21002;-82
2022/07/26 08:56:32;;;;;;;0.70;0.70;;;27.30;75.30;;;;;;5083820;28;20500;-82
2022/07/26 08:59:03;;;;;;;1.00;0.80;;;27.30;73.90;;;;;;5074564;28;20458;-82
2022/07/26 09:01:34;;;;;;;0.70;0.70;;;27.30;73.40;;;;;;5081568;28;20840;-82
2022/07/26 09:04:17;;;;;;;0.70;0.70;;;27.30;77.90;;;;;;5079309;28;21012;-83
2022/07/26 09:07:02;;;;;;;1.00;0.80;;;27.30;77.40;;;;;;5077630;28;20477;-82
2022/07/26 09:09:31;;;;;;;1.03;0.90;;;27.40;74.40;;;;;;5079776;28;21266;-83
2022/07/26 09:12:12;;;;;;;0.80;0.80;;;27.40;72.70;;;;;;5086721;28;20465;-82
2022/07/26 09:14:41;;;;;;;2.63;0.70;;;27.40;72.70;;;;;;5084469;28;20462;-81
2022/07/26 09:17:10;;;;;;;1.57;0.80;;;27.50;75.40;;;;;;5077355;28;20473;-81
2022/07/26 09:19:39;;;;;;;1.67;0.73;;;27.50;77.30;;;;;;5080622;28;20469;-82
2022/07/26 09:22:10;;;;;;;1.83;0.70;;;27.50;75.70;;;;;;5079922;28;20443;-83
2022/07/26 09:24:41;;;;;;;0.77;0.77;;;27.60;76.00;;;;;;5081998;28;20471;-82
2022/07/26 09:27:11;;;;;;;0.97;0.80;;;27.60;73.20;;;;;;5078561;28;20513;-81
2022/07/26 09:29:47;;;;;;;1.93;0.90;;;27.60;73.40;;;;;;5086331;28;20465;-82
2022/07/26 09:32:19;;;;;;;1.80;0.80;;;27.70;73.50;;;;;;5080979;28;20486;-82
2022/07/26 09:34:49;;;;;;;0.70;0.70;;;27.70;74.20;;;;;;5087299;28;21187;-81
2022/07/26 09:37:34;;;;;;;1.87;0.80;;;27.80;73.70;;;;;;5085811;28;20462;-81
2022/07/26 09:40:04;;;;;;;1.73;0.80;;;27.90;92.00;;;;;;5079749;28;20454;-83
2022/07/26 09:42:32;;;;;;;0.90;0.80;;;27.90;74.70;;;;;;5080142;28;20454;-82
2022/07/26 09:45:01;;;;;;;1.57;0.70;;;27.90;77.80;;;;;;5082185;28;20502;-82
2022/07/26 09:47:38;;;;;;;0.87;0.73;;;28.00;74.10;;;;;;5082767;28;20473;-82
2022/07/26 09:50:11;;;;;;;1.13;0.70;;;28.00;74.50;;;;;;5085067;28;20537;-81
2022/07/26 09:52:41;;;;;;;0.60;0.60;;;27.90;73.70;;;;;;5078435;28;20529;-81
2022/07/26 09:55:12;;;;;;;0.80;0.80;;;27.90;75.40;;;;;;5083749;28;20452;-81
2022/07/26 09:57:40;;;;;;;0.97;0.70;;;28.00;72.00;;;;;;5085253;28;20505;-81
2022/07/26 10:00:09;;;;;;;0.83;0.70;;;27.90;73.90;;;;;;5086744;28;20461;-82
2022/07/26 10:02:39;;;;;;;0.90;0.80;;;28.00;70.60;;;;;;5079559;28;20447;-80
2022/07/26 10:05:08;;;;;;;2.03;0.67;;;28.00;73.30;;;;;;5084530;28;20458;-81
2022/07/26 10:07:37;;;;;;;2.63;0.97;;;28.10;73.00;;;;;;5080481;28;20486;-81
2022/07/26 10:10:10;;;;;;;1.37;0.70;;;28.00;71.50;;;;;;5086751;28;20445;-82
2022/07/26 10:12:39;;;;;;;0.80;0.80;;;28.10;71.20;;;;;;5080420;28;20483;-83
2022/07/26 10:15:35;;;;;;;2.03;0.90;;;28.10;75.30;;;;;;5090286;28;20457;-82
2022/07/26 10:18:07;;;;;;;2.90;1.83;;;28.10;71.70;;;;;;5104673;28;20557;-82
2022/07/26 10:20:50;;;;;;;2.10;1.00;;;28.00;72.60;;;;;;5090259;28;20464;-82
2022/07/26 10:23:40;;;;;;;1.80;1.70;;;28.00;70.70;;;;;;5081011;28;20556;-82
2022/07/26 10:26:11;;;;;;;3.33;2.47;;;28.00;70.60;;;;;;5088563;28;20454;-82
2022/07/26 10:28:40;;;;;;;1.50;1.40;;;28.10;71.70;;;;;;5088966;28;20441;-82
2022/07/26 10:31:29;;;;;;;0.90;0.90;;;28.10;72.80;;;;;;5085977;28;20469;-81
2022/07/26 10:34:00;;;;;;;1.23;0.80;;;28.10;71.10;;;;;;5086478;28;20453;-81
2022/07/26 10:36:34;;;;;;;1.00;0.90;;;28.20;70.20;;;;;;5082453;28;20503;-82
2022/07/26 10:39:13;;;;;;;0.80;0.80;;;28.20;71.70;;;;;;5080797;28;21010;-79
2022/07/26 10:41:44;;;;;;;1.07;1.00;;;28.20;70.50;;;;;;5080621;28;20972;-79
2022/07/26 10:44:22;;;;;;;1.83;0.90;;;28.20;73.00;;;;;;5083051;28;20456;-80
2022/07/26 10:47:03;;;;;;;0.70;0.70;;;28.30;73.50;;;;;;5080732;28;20469;-79
2022/07/26 10:49:34;;;;;;;1.10;0.93;;;28.30;72.00;;;;;;5078404;28;20979;-80
2022/07/26 10:52:08;;;;;;;1.47;0.80;;;28.30;71.40;;;;;;5076930;28;20534;-80
2022/07/26 10:55:13;;;;;;;1.23;1.13;;;28.30;71.80;;;;;;5080810;28;20453;-80
2022/07/26 10:57:47;;;;;;;1.13;0.60;;;28.20;70.40;;;;;;5084081;28;20469;-79
2022/07/26 11:00:21;;;;;;;1.00;0.90;;;28.20;69.60;;;;;;5080783;28;20717;-79
2022/07/26 11:02:54;;;;;;;1.10;0.80;;;28.20;68.80;;;;;;5081287;28;20523;-79
2022/07/26 11:05:29;;;;;;;1.73;0.90;;;28.30;68.70;;;;;;5080476;28;20456;-79
2022/07/26 11:08:03;;;;;;;0.97;0.87;;;28.30;70.50;;;;;;5080861;28;20548;-79
2022/07/26 11:10:34;;;;;;;1.07;0.73;;;28.20;70.40;;;;;;5086507;28;20456;-79
2022/07/26 11:13:08;;;;;;;2.03;0.80;;;28.20;69.80;;;;;;5086442;28;20482;-77
2022/07/26 11:15:38;;;;;;;1.43;0.63;;;28.20;68.50;;;;;;5081769;28;20461;-79
2022/07/26 11:18:23;;;;;;;1.77;0.77;;;28.30;69.80;;;;;;5089839;28;20488;-79
2022/07/26 11:20:56;;;;;;;0.60;0.60;;;28.40;66.60;;;;;;5085178;28;20515;-79
2022/07/26 11:23:29;;;;;;;0.97;0.87;;;28.40;68.80;;;;;;5089364;28;20453;-80
2022/07/26 11:26:06;;;;;;;1.17;0.70;;;28.40;67.30;;;;;;5091069;28;20677;-79
2022/07/26 11:29:00;;;;;;;1.00;1.00;;;28.40;70.10;;;;;;5085827;28;20460;-78
2022/07/26 11:31:38;;;;;;;1.13;0.80;;;28.50;69.50;;;;;;5084775;28;20473;-78
2022/07/26 11:34:29;;;;;;;1.17;0.60;;;28.60;74.20;;;;;;5080666;28;20465;-79
2022/07/26 11:36:59;;;;;;;0.70;0.70;;;28.60;73.70;;;;;;5082857;28;20473;-78
2022/07/26 11:39:30;;;;;;;1.10;0.80;;;28.60;91.20;;;;;;5076153;28;20458;-79
2022/07/26 11:41:59;;;;;;;0.77;0.77;;;28.70;74.10;;;;;;5081671;28;20708;-79
2022/07/26 11:44:28;;;;;;;1.20;0.67;;;28.60;73.20;;;;;;5089938;28;20453;-79
2022/07/26 11:46:57;;;;;;;0.70;0.70;;;28.60;73.70;;;;;;5087204;28;20459;-79
2022/07/26 11:49:27;;;;;;;1.97;0.83;;;28.70;73.70;;;;;;5077013;28;20541;-80
2022/07/26 11:52:17;;;;;;;0.60;0.60;;;28.80;72.60;;;;;;5079484;28;20540;-79
2022/07/26 11:54:54;;;;;;;0.87;0.80;;;28.70;73.70;;;;;;5081337;28;20495;-80
2022/07/26 11:57:27;;;;;;;0.93;0.73;;;28.80;73.00;;;;;;5081977;28;20514;-79
2022/07/26 11:59:56;;;;;;;1.00;0.80;;;28.80;71.50;;;;;;5083289;28;20453;-79
2022/07/26 12:02:25;;;;;;;0.90;0.90;;;28.80;73.20;;;;;;5087804;28;20931;-79
2022/07/26 12:05:12;;;;;;;1.37;1.03;;;28.80;74.10;;;;;;5090552;28;20462;-79
2022/07/26 12:07:55;;;;;;;0.80;0.70;;;28.90;72.60;;;;;;5093302;28;20462;-79
2022/07/26 12:10:24;;;;;;;0.80;0.80;;;28.90;73.00;;;;;;5087813;28;20481;-80
2022/07/26 12:13:07;;;;;;;1.53;0.57;;;28.90;71.40;;;;;;5089606;28;20454;-80
2022/07/26 12:15:47;;;;;;;1.13;1.03;;;29.00;70.70;;;;;;5077461;28;20478;-80
2022/07/26 12:18:23;;;;;;;0.60;0.60;;;28.90;69.10;;;;;;5078289;28;20461;-80
2022/07/26 12:21:00;;;;;;;1.40;0.70;;;28.80;69.30;;;;;;5080633;28;20441;-80
2022/07/26 12:23:43;;;;;;;0.93;0.80;;;28.90;70.80;;;;;;5081304;28;20579;-79
2022/07/26 12:26:25;;;;;;;0.87;0.70;;;28.80;67.60;;;;;;5080408;28;20535;-80
2022/07/26 12:28:54;;;;;;;1.43;0.77;;;28.80;69.80;;;;;;5082575;28;20459;-80
2022/07/26 12:31:27;;;;;;;1.17;0.63;;;28.80;67.70;;;;;;5084452;28;20441;-79
2022/07/26 12:33:56;;;;;;;0.87;0.77;;;28.80;67.00;;;;;;5083184;28;20898;-79
2022/07/26 12:36:29;;;;;;;0.70;0.70;;;28.80;69.40;;;;;;5080311;28;20446;-80
2022/07/26 12:39:00;;;;;;;0.90;0.60;;;28.80;67.30;;;;;;5074979;28;20437;-80
2022/07/26 12:41:33;;;;;;;0.73;0.50;;;28.80;67.90;;;;;;5082515;28;20954;-80
2022/07/26 12:44:01;;;;;;;1.00;0.60;;;28.90;66.50;;;;;;5084461;28;20960;-80
2022/07/26 12:46:33;;;;;;;0.70;0.70;;;28.90;68.30;;;;;;5080042;28;20470;-80
2022/07/26 12:49:01;;;;;;;0.70;0.70;;;28.90;68.40;;;;;;5080201;28;20462;-80
2022/07/26 12:51:30;;;;;;;0.70;0.60;;;28.90;71.10;;;;;;5073402;28;20470;-81
2022/07/26 12:54:00;;;;;;;0.70;0.70;;;28.90;74.30;;;;;;5080243;28;20466;-79
2022/07/26 12:56:28;;;;;;;1.10;0.63;;;29.00;73.60;;;;;;5077203;28;21604;-79
2022/07/26 12:58:59;;;;;;;0.70;0.70;;;29.10;71.40;;;;;;5082531;28;20444;-80
2022/07/26 13:01:29;;;;;;;0.50;0.50;;;29.10;73.70;;;;;;5073250;28;20465;-79
2022/07/26 13:03:58;;;;;;;1.17;0.60;;;29.20;72.30;;;;;;5075251;28;20442;-79
2022/07/26 13:06:26;;;;;;;0.60;0.60;;;29.20;75.80;;;;;;5070523;28;20446;-79
2022/07/26 13:08:55;;;;;;;0.70;0.70;;;29.10;72.80;;;;;;5081264;28;20461;-78